sensor_id;sensor_type;location;lat;lon;timestamp;P1;durP1;ratioP1;P2;durP2;ratioP2
58689;SDS011;44470;53.206;-6.106;2023-04-06T00:01:24;1.83;;;1.40;;
58689;SDS011;44470;53.206;-6.106;2023-04-06T00:03:50;2.05;;;1.13;;
58689;SDS011;44470;53.206;-6.106;2023-04-06T00:06:16;2.10;;;1.08;;
58689;SDS011;44470;53.206;-6.106;2023-04-06T00:08:41;1.67;;;1.05;;
58689;SDS011;44470;53.206;-6.106;2023-04-06T00:11:08;1.73;;;1.15;;
58689;SDS011;44470;53.206;-6.106;2023-04-06T00:13:34;1.30;;;1.00;;
58689;SDS011;44470;53.206;-6.106;2023-04-06T00:15:59;0.98;;;0.85;;
58689;SDS011;44470;53.206;-6.106;2023-04-06T00:18:25;1.40;;;1.30;;
58689;SDS011;44470;53.206;-6.106;2023-04-06T00:20:51;1.05;;;0.98;;
58689;SDS011;44470;53.206;-6.106;2023-04-06T00:23:17;1.27;;;0.90;;
58689;SDS011;44470;53.206;-6.106;2023-04-06T00:25:42;1.52;;;1.00;;
58689;SDS011;44470;53.206;-6.106;2023-04-06T00:28:08;1.95;;;1.30;;
58689;SDS011;44470;53.206;-6.106;2023-04-06T00:30:33;0.98;;;0.90;;
58689;SDS011;44470;53.206;-6.106;2023-04-06T00:32:59;0.70;;;0.70;;
58689;SDS011;44470;53.206;-6.106;2023-04-06T00:35:25;2.15;;;1.08;;
58689;SDS011;44470;53.206;-6.106;2023-04-06T00:37:51;0.82;;;0.80;;
58689;SDS011;44470;53.206;-6.106;2023-04-06T00:40:17;1.83;;;1.20;;
58689;SDS011;44470;53.206;-6.106;2023-04-06T00:42:44;1.30;;;1.10;;
58689;SDS011;44470;53.206;-6.106;2023-04-06T00:45:09;1.45;;;1.08;;
58689;SDS011;44470;53.206;-6.106;2023-04-06T00:47:35;1.20;;;0.90;;
58689;SDS011;44470;53.206;-6.106;2023-04-06T00:50:01;1.10;;;1.00;;
58689;SDS011;44470;53.206;-6.106;2023-04-06T00:52:26;2.42;;;1.35;;
58689;SDS011;44470;53.206;-6.106;2023-04-06T00:54:53;1.50;;;0.75;;
58689;SDS011;44470;53.206;-6.106;2023-04-06T00:57:20;1.27;;;1.10;;
58689;SDS011;44470;53.206;-6.106;2023-04-06T00:59:52;1.48;;;1.02;;
58689;SDS011;44470;53.206;-6.106;2023-04-06T01:02:18;1.42;;;0.88;;
58689;SDS011;44470;53.206;-6.106;2023-04-06T01:04:47;1.20;;;1.08;;
58689;SDS011;44470;53.206;-6.106;2023-04-06T01:07:23;0.93;;;0.80;;
58689;SDS011;44470;53.206;-6.106;2023-04-06T01:10:03;1.30;;;0.88;;
58689;SDS011;44470;53.206;-6.106;2023-04-06T01:12:31;1.70;;;0.95;;
58689;SDS011;44470;53.206;-6.106;2023-04-06T01:15:00;1.25;;;0.80;;
58689;SDS011;44470;53.206;-6.106;2023-04-06T01:17:27;1.67;;;1.10;;
58689;SDS011;44470;53.206;-6.106;2023-04-06T01:19:55;1.25;;;0.80;;
58689;SDS011;44470;53.206;-6.106;2023-04-06T01:22:27;1.63;;;0.90;;
58689;SDS011;44470;53.206;-6.106;2023-04-06T01:24:59;1.98;;;1.27;;
58689;SDS011;44470;53.206;-6.106;2023-04-06T01:27:43;0.85;;;0.85;;
58689;SDS011;44470;53.206;-6.106;2023-04-06T01:30:11;2.22;;;0.98;;
58689;SDS011;44470;53.206;-6.106;2023-04-06T01:32:56;0.82;;;0.82;;
58689;SDS011;44470;53.206;-6.106;2023-04-06T01:35:54;1.77;;;1.23;;
58689;SDS011;44470;53.206;-6.106;2023-04-06T01:38:20;1.48;;;0.80;;
58689;SDS011;44470;53.206;-6.106;2023-04-06T01:40:47;2.47;;;1.30;;
58689;SDS011;44470;53.206;-6.106;2023-04-06T01:43:13;1.70;;;0.85;;
58689;SDS011;44470;53.206;-6.106;2023-04-06T01:46:00;1.25;;;0.95;;
58689;SDS011;44470;53.206;-6.106;2023-04-06T01:48:31;1.20;;;1.10;;
58689;SDS011;44470;53.206;-6.106;2023-04-06T01:50:57;1.08;;;0.98;;
58689;SDS011;44470;53.206;-6.106;2023-04-06T01:53:28;2.00;;;1.20;;
58689;SDS011;44470;53.206;-6.106;2023-04-06T01:55:59;1.85;;;1.05;;
58689;SDS011;44470;53.206;-6.106;2023-04-06T01:58:30;0.80;;;0.80;;
58689;SDS011;44470;53.206;-6.106;2023-04-06T02:00:55;0.73;;;0.70;;
58689;SDS011;44470;53.206;-6.106;2023-04-06T02:03:22;2.92;;;1.52;;
58689;SDS011;44470;53.206;-6.106;2023-04-06T02:05:55;2.42;;;1.02;;
58689;SDS011;44470;53.206;-6.106;2023-04-06T02:08:30;1.42;;;0.80;;
58689;SDS011;44470;53.206;-6.106;2023-04-06T02:10:56;1.77;;;1.23;;
58689;SDS011;44470;53.206;-6.106;2023-04-06T02:13:29;1.63;;;1.00;;
58689;SDS011;44470;53.206;-6.106;2023-04-06T02:15:55;1.45;;;0.95;;
58689;SDS011;44470;53.206;-6.106;2023-04-06T02:18:20;1.63;;;0.85;;
58689;SDS011;44470;53.206;-6.106;2023-04-06T02:20:46;1.30;;;1.02;;
58689;SDS011;44470;53.206;-6.106;2023-04-06T02:23:12;0.90;;;0.90;;
58689;SDS011;44470;53.206;-6.106;2023-04-06T02:25:37;0.88;;;0.88;;
58689;SDS011;44470;53.206;-6.106;2023-04-06T02:28:03;1.02;;;0.93;;
58689;SDS011;44470;53.206;-6.106;2023-04-06T02:30:29;1.77;;;1.10;;
58689;SDS011;44470;53.206;-6.106;2023-04-06T02:32:55;2.00;;;1.00;;
58689;SDS011;44470;53.206;-6.106;2023-04-06T02:35:21;2.60;;;1.30;;
58689;SDS011;44470;53.206;-6.106;2023-04-06T02:37:52;1.38;;;1.08;;
58689;SDS011;44470;53.206;-6.106;2023-04-06T02:40:18;2.13;;;1.20;;
58689;SDS011;44470;53.206;-6.106;2023-04-06T02:42:44;1.30;;;1.20;;
58689;SDS011;44470;53.206;-6.106;2023-04-06T02:45:11;2.15;;;1.50;;
58689;SDS011;44470;53.206;-6.106;2023-04-06T02:47:56;1.30;;;1.20;;
58689;SDS011;44470;53.206;-6.106;2023-04-06T02:50:23;1.30;;;1.20;;
58689;SDS011;44470;53.206;-6.106;2023-04-06T02:52:56;1.55;;;1.40;;
58689;SDS011;44470;53.206;-6.106;2023-04-06T02:55:22;1.85;;;1.38;;
58689;SDS011;44470;53.206;-6.106;2023-04-06T02:57:48;2.75;;;1.60;;
58689;SDS011;44470;53.206;-6.106;2023-04-06T03:00:14;1.40;;;1.30;;
58689;SDS011;44470;53.206;-6.106;2023-04-06T03:02:40;2.28;;;1.52;;
58689;SDS011;44470;53.206;-6.106;2023-04-06T03:05:09;1.40;;;1.30;;
58689;SDS011;44470;53.206;-6.106;2023-04-06T03:07:39;1.60;;;1.50;;
58689;SDS011;44470;53.206;-6.106;2023-04-06T03:10:08;2.17;;;1.50;;
58689;SDS011;44470;53.206;-6.106;2023-04-06T03:12:34;1.55;;;1.45;;
58689;SDS011;44470;53.206;-6.106;2023-04-06T03:15:13;1.60;;;1.50;;
58689;SDS011;44470;53.206;-6.106;2023-04-06T03:17:43;1.55;;;1.45;;
58689;SDS011;44470;53.206;-6.106;2023-04-06T03:20:15;2.25;;;1.60;;
58689;SDS011;44470;53.206;-6.106;2023-04-06T03:22:41;1.77;;;1.27;;
58689;SDS011;44470;53.206;-6.106;2023-04-06T03:25:10;2.17;;;1.42;;
58689;SDS011;44470;53.206;-6.106;2023-04-06T03:27:35;1.73;;;1.40;;
58689;SDS011;44470;53.206;-6.106;2023-04-06T03:30:03;1.80;;;1.48;;
58689;SDS011;44470;53.206;-6.106;2023-04-06T03:32:33;2.25;;;2.05;;
58689;SDS011;44470;53.206;-6.106;2023-04-06T03:34:58;2.15;;;1.75;;
58689;SDS011;44470;53.206;-6.106;2023-04-06T03:37:24;2.03;;;1.50;;
58689;SDS011;44470;53.206;-6.106;2023-04-06T03:39:53;2.80;;;1.80;;
58689;SDS011;44470;53.206;-6.106;2023-04-06T03:42:22;2.38;;;1.70;;
58689;SDS011;44470;53.206;-6.106;2023-04-06T03:44:55;1.67;;;1.25;;
58689;SDS011;44470;53.206;-6.106;2023-04-06T03:47:21;2.42;;;1.55;;
58689;SDS011;44470;53.206;-6.106;2023-04-06T03:49:46;2.58;;;1.48;;
58689;SDS011;44470;53.206;-6.106;2023-04-06T03:52:14;1.85;;;1.55;;
58689;SDS011;44470;53.206;-6.106;2023-04-06T03:54:39;1.42;;;1.33;;
58689;SDS011;44470;53.206;-6.106;2023-04-06T03:57:05;1.63;;;1.40;;
58689;SDS011;44470;53.206;-6.106;2023-04-06T03:59:30;1.50;;;1.40;;
58689;SDS011;44470;53.206;-6.106;2023-04-06T04:01:56;1.67;;;1.50;;
58689;SDS011;44470;53.206;-6.106;2023-04-06T04:04:22;1.98;;;1.40;;
58689;SDS011;44470;53.206;-6.106;2023-04-06T04:06:47;1.50;;;1.40;;
58689;SDS011;44470;53.206;-6.106;2023-04-06T04:09:13;2.38;;;1.40;;
58689;SDS011;44470;53.206;-6.106;2023-04-06T04:11:38;2.20;;;1.50;;
58689;SDS011;44470;53.206;-6.106;2023-04-06T04:14:04;2.42;;;1.70;;
58689;SDS011;44470;53.206;-6.106;2023-04-06T04:16:29;3.05;;;1.42;;
58689;SDS011;44470;53.206;-6.106;2023-04-06T04:18:55;2.10;;;1.40;;
58689;SDS011;44470;53.206;-6.106;2023-04-06T04:21:23;2.53;;;1.60;;
58689;SDS011;44470;53.206;-6.106;2023-04-06T04:23:48;1.70;;;1.45;;
58689;SDS011;44470;53.206;-6.106;2023-04-06T04:26:15;1.67;;;1.42;;
58689;SDS011;44470;53.206;-6.106;2023-04-06T04:28:44;2.80;;;1.30;;
58689;SDS011;44470;53.206;-6.106;2023-04-06T04:31:09;1.63;;;1.52;;
58689;SDS011;44470;53.206;-6.106;2023-04-06T04:33:35;1.75;;;1.35;;
58689;SDS011;44470;53.206;-6.106;2023-04-06T04:36:06;2.75;;;1.50;;
58689;SDS011;44470;53.206;-6.106;2023-04-06T04:38:38;2.58;;;1.73;;
58689;SDS011;44470;53.206;-6.106;2023-04-06T04:41:03;1.52;;;1.40;;
58689;SDS011;44470;53.206;-6.106;2023-04-06T04:43:29;2.40;;;1.50;;
58689;SDS011;44470;53.206;-6.106;2023-04-06T04:45:56;1.35;;;1.23;;
58689;SDS011;44470;53.206;-6.106;2023-04-06T04:48:31;1.92;;;1.35;;
58689;SDS011;44470;53.206;-6.106;2023-04-06T04:51:00;2.92;;;1.30;;
58689;SDS011;44470;53.206;-6.106;2023-04-06T04:53:33;2.33;;;1.50;;
58689;SDS011;44470;53.206;-6.106;2023-04-06T04:56:08;1.35;;;1.25;;
58689;SDS011;44470;53.206;-6.106;2023-04-06T04:58:33;2.58;;;1.77;;
58689;SDS011;44470;53.206;-6.106;2023-04-06T05:00:59;1.20;;;1.05;;
58689;SDS011;44470;53.206;-6.106;2023-04-06T05:03:26;1.48;;;1.10;;
58689;SDS011;44470;53.206;-6.106;2023-04-06T05:06:02;3.38;;;1.33;;
58689;SDS011;44470;53.206;-6.106;2023-04-06T05:08:31;1.35;;;1.25;;
58689;SDS011;44470;53.206;-6.106;2023-04-06T05:10:57;2.10;;;1.20;;
58689;SDS011;44470;53.206;-6.106;2023-04-06T05:13:23;1.45;;;1.20;;
58689;SDS011;44470;53.206;-6.106;2023-04-06T05:15:50;1.77;;;1.15;;
58689;SDS011;44470;53.206;-6.106;2023-04-06T05:18:25;2.17;;;1.23;;
58689;SDS011;44470;53.206;-6.106;2023-04-06T05:20:50;1.50;;;1.10;;
58689;SDS011;44470;53.206;-6.106;2023-04-06T05:23:19;1.38;;;1.10;;
58689;SDS011;44470;53.206;-6.106;2023-04-06T05:25:44;1.20;;;1.00;;
58689;SDS011;44470;53.206;-6.106;2023-04-06T05:28:15;1.30;;;0.90;;
58689;SDS011;44470;53.206;-6.106;2023-04-06T05:30:43;1.52;;;1.25;;
58689;SDS011;44470;53.206;-6.106;2023-04-06T05:33:10;2.67;;;1.23;;
58689;SDS011;44470;53.206;-6.106;2023-04-06T05:35:52;1.05;;;0.93;;
58689;SDS011;44470;53.206;-6.106;2023-04-06T05:38:18;1.45;;;1.20;;
58689;SDS011;44470;53.206;-6.106;2023-04-06T05:40:43;1.33;;;1.00;;
58689;SDS011;44470;53.206;-6.106;2023-04-06T05:43:13;1.10;;;0.98;;
58689;SDS011;44470;53.206;-6.106;2023-04-06T05:45:44;1.77;;;1.05;;
58689;SDS011;44470;53.206;-6.106;2023-04-06T05:48:10;1.02;;;0.93;;
58689;SDS011;44470;53.206;-6.106;2023-04-06T05:50:36;1.58;;;1.08;;
58689;SDS011;44470;53.206;-6.106;2023-04-06T05:53:02;1.15;;;1.00;;
58689;SDS011;44470;53.206;-6.106;2023-04-06T05:55:33;1.77;;;1.13;;
58689;SDS011;44470;53.206;-6.106;2023-04-06T05:58:10;1.33;;;1.23;;
58689;SDS011;44470;53.206;-6.106;2023-04-06T06:00:35;1.00;;;1.00;;
58689;SDS011;44470;53.206;-6.106;2023-04-06T06:03:04;1.20;;;0.85;;
58689;SDS011;44470;53.206;-6.106;2023-04-06T06:05:31;2.00;;;1.20;;
58689;SDS011;44470;53.206;-6.106;2023-04-06T06:08:03;1.00;;;0.90;;
58689;SDS011;44470;53.206;-6.106;2023-04-06T06:10:29;1.70;;;1.08;;
58689;SDS011;44470;53.206;-6.106;2023-04-06T06:12:55;1.65;;;1.05;;
58689;SDS011;44470;53.206;-6.106;2023-04-06T06:15:21;2.40;;;0.88;;
58689;SDS011;44470;53.206;-6.106;2023-04-06T06:17:47;1.85;;;1.25;;
58689;SDS011;44470;53.206;-6.106;2023-04-06T06:20:12;1.48;;;1.15;;
58689;SDS011;44470;53.206;-6.106;2023-04-06T06:22:38;1.42;;;1.30;;
58689;SDS011;44470;53.206;-6.106;2023-04-06T06:25:07;1.45;;;1.02;;
58689;SDS011;44470;53.206;-6.106;2023-04-06T06:27:33;3.00;;;1.38;;
58689;SDS011;44470;53.206;-6.106;2023-04-06T06:29:58;1.35;;;1.05;;
58689;SDS011;44470;53.206;-6.106;2023-04-06T06:32:24;1.70;;;1.02;;
58689;SDS011;44470;53.206;-6.106;2023-04-06T06:34:51;1.60;;;1.33;;
58689;SDS011;44470;53.206;-6.106;2023-04-06T06:37:17;2.05;;;1.20;;
58689;SDS011;44470;53.206;-6.106;2023-04-06T06:39:43;3.10;;;1.50;;
58689;SDS011;44470;53.206;-6.106;2023-04-06T06:42:09;0.95;;;0.95;;
58689;SDS011;44470;53.206;-6.106;2023-04-06T06:44:46;1.38;;;1.10;;
58689;SDS011;44470;53.206;-6.106;2023-04-06T06:47:11;1.25;;;0.95;;
58689;SDS011;44470;53.206;-6.106;2023-04-06T06:49:37;1.08;;;0.98;;
58689;SDS011;44470;53.206;-6.106;2023-04-06T06:52:02;2.45;;;1.40;;
58689;SDS011;44470;53.206;-6.106;2023-04-06T06:54:28;1.17;;;1.08;;
58689;SDS011;44470;53.206;-6.106;2023-04-06T06:56:53;1.10;;;1.00;;
58689;SDS011;44470;53.206;-6.106;2023-04-06T06:59:20;1.27;;;1.10;;
58689;SDS011;44470;53.206;-6.106;2023-04-06T07:01:46;1.42;;;0.93;;
58689;SDS011;44470;53.206;-6.106;2023-04-06T07:04:11;1.20;;;1.10;;
58689;SDS011;44470;53.206;-6.106;2023-04-06T07:06:37;2.35;;;1.40;;
58689;SDS011;44470;53.206;-6.106;2023-04-06T07:09:02;1.42;;;0.90;;
58689;SDS011;44470;53.206;-6.106;2023-04-06T07:11:28;1.83;;;1.25;;
58689;SDS011;44470;53.206;-6.106;2023-04-06T07:13:54;1.45;;;0.95;;
58689;SDS011;44470;53.206;-6.106;2023-04-06T07:16:20;1.75;;;1.40;;
58689;SDS011;44470;53.206;-6.106;2023-04-06T07:18:45;2.72;;;1.55;;
58689;SDS011;44470;53.206;-6.106;2023-04-06T07:21:11;1.27;;;1.20;;
58689;SDS011;44470;53.206;-6.106;2023-04-06T07:23:37;1.58;;;1.20;;
58689;SDS011;44470;53.206;-6.106;2023-04-06T07:26:03;2.47;;;1.25;;
58689;SDS011;44470;53.206;-6.106;2023-04-06T07:28:29;1.38;;;1.27;;
58689;SDS011;44470;53.206;-6.106;2023-04-06T07:30:54;1.40;;;1.30;;
58689;SDS011;44470;53.206;-6.106;2023-04-06T07:33:33;1.48;;;1.00;;
58689;SDS011;44470;53.206;-6.106;2023-04-06T07:35:58;1.83;;;1.27;;
58689;SDS011;44470;53.206;-6.106;2023-04-06T07:38:24;1.10;;;1.00;;
58689;SDS011;44470;53.206;-6.106;2023-04-06T07:40:50;1.55;;;1.40;;
58689;SDS011;44470;53.206;-6.106;2023-04-06T07:43:16;1.50;;;1.40;;
58689;SDS011;44470;53.206;-6.106;2023-04-06T07:45:42;1.35;;;1.25;;
58689;SDS011;44470;53.206;-6.106;2023-04-06T07:48:08;1.67;;;1.58;;
58689;SDS011;44470;53.206;-6.106;2023-04-06T07:50:34;1.50;;;1.38;;
58689;SDS011;44470;53.206;-6.106;2023-04-06T07:52:59;1.35;;;1.25;;
58689;SDS011;44470;53.206;-6.106;2023-04-06T07:55:26;1.35;;;1.25;;
58689;SDS011;44470;53.206;-6.106;2023-04-06T07:57:51;1.95;;;1.48;;
58689;SDS011;44470;53.206;-6.106;2023-04-06T08:00:17;1.35;;;1.35;;
58689;SDS011;44470;53.206;-6.106;2023-04-06T08:02:42;1.70;;;1.60;;
58689;SDS011;44470;53.206;-6.106;2023-04-06T08:05:08;1.75;;;1.65;;
58689;SDS011;44470;53.206;-6.106;2023-04-06T08:07:34;1.33;;;1.23;;
58689;SDS011;44470;53.206;-6.106;2023-04-06T08:10:00;1.50;;;1.40;;
58689;SDS011;44470;53.206;-6.106;2023-04-06T08:12:26;1.50;;;1.40;;
58689;SDS011;44470;53.206;-6.106;2023-04-06T08:14:52;1.10;;;1.10;;
58689;SDS011;44470;53.206;-6.106;2023-04-06T08:20:07;1.20;;;1.10;;
58689;SDS011;44470;53.206;-6.106;2023-04-06T08:22:32;1.30;;;1.20;;
58689;SDS011;44470;53.206;-6.106;2023-04-06T08:24:58;1.27;;;1.20;;
58689;SDS011;44470;53.206;-6.106;2023-04-06T08:27:23;1.65;;;1.40;;
58689;SDS011;44470;53.206;-6.106;2023-04-06T08:29:49;1.55;;;1.05;;
58689;SDS011;44470;53.206;-6.106;2023-04-06T08:32:15;2.00;;;1.30;;
58689;SDS011;44470;53.206;-6.106;2023-04-06T08:34:44;1.10;;;1.10;;
58689;SDS011;44470;53.206;-6.106;2023-04-06T08:37:09;1.90;;;1.13;;
58689;SDS011;44470;53.206;-6.106;2023-04-06T08:39:35;1.30;;;1.20;;
58689;SDS011;44470;53.206;-6.106;2023-04-06T08:42:00;1.45;;;1.25;;
58689;SDS011;44470;53.206;-6.106;2023-04-06T08:44:28;1.60;;;1.13;;
58689;SDS011;44470;53.206;-6.106;2023-04-06T08:46:55;1.25;;;1.02;;
58689;SDS011;44470;53.206;-6.106;2023-04-06T08:49:20;1.25;;;1.13;;
58689;SDS011;44470;53.206;-6.106;2023-04-06T08:51:47;1.73;;;1.15;;
58689;SDS011;44470;53.206;-6.106;2023-04-06T08:54:12;1.27;;;1.17;;
58689;SDS011;44470;53.206;-6.106;2023-04-06T08:56:38;1.25;;;1.00;;
58689;SDS011;44470;53.206;-6.106;2023-04-06T08:59:04;1.08;;;1.08;;
58689;SDS011;44470;53.206;-6.106;2023-04-06T09:01:31;0.98;;;0.98;;
58689;SDS011;44470;53.206;-6.106;2023-04-06T09:04:00;1.20;;;1.10;;
58689;SDS011;44470;53.206;-6.106;2023-04-06T09:06:26;1.25;;;0.98;;
58689;SDS011;44470;53.206;-6.106;2023-04-06T09:08:52;0.73;;;0.70;;
58689;SDS011;44470;53.206;-6.106;2023-04-06T09:11:19;1.95;;;0.98;;
58689;SDS011;44470;53.206;-6.106;2023-04-06T09:13:55;0.90;;;0.90;;
58689;SDS011;44470;53.206;-6.106;2023-04-06T09:16:22;1.40;;;0.93;;
58689;SDS011;44470;53.206;-6.106;2023-04-06T09:18:48;1.75;;;1.20;;
58689;SDS011;44470;53.206;-6.106;2023-04-06T09:21:18;1.02;;;0.93;;
58689;SDS011;44470;53.206;-6.106;2023-04-06T09:23:44;1.33;;;1.23;;
58689;SDS011;44470;53.206;-6.106;2023-04-06T09:28:52;1.25;;;1.10;;
58689;SDS011;44470;53.206;-6.106;2023-04-06T09:31:23;0.73;;;0.73;;
58689;SDS011;44470;53.206;-6.106;2023-04-06T09:33:50;1.70;;;1.10;;
58689;SDS011;44470;53.206;-6.106;2023-04-06T09:36:15;1.52;;;1.10;;
58689;SDS011;44470;53.206;-6.106;2023-04-06T09:38:51;0.73;;;0.73;;
58689;SDS011;44470;53.206;-6.106;2023-04-06T09:41:29;1.20;;;1.00;;
58689;SDS011;44470;53.206;-6.106;2023-04-06T09:46:35;1.00;;;0.90;;
58689;SDS011;44470;53.206;-6.106;2023-04-06T09:49:02;0.82;;;0.65;;
58689;SDS011;44470;53.206;-6.106;2023-04-06T09:51:39;0.90;;;0.90;;
58689;SDS011;44470;53.206;-6.106;2023-04-06T09:54:06;0.80;;;0.77;;
58689;SDS011;44470;53.206;-6.106;2023-04-06T09:59:18;0.98;;;0.77;;
58689;SDS011;44470;53.206;-6.106;2023-04-06T10:02:05;1.88;;;1.20;;
58689;SDS011;44470;53.206;-6.106;2023-04-06T10:04:42;1.45;;;0.88;;
58689;SDS011;44470;53.206;-6.106;2023-04-06T10:07:13;1.45;;;1.00;;
58689;SDS011;44470;53.206;-6.106;2023-04-06T10:09:40;1.23;;;0.65;;
58689;SDS011;44470;53.206;-6.106;2023-04-06T10:12:10;1.40;;;0.85;;
58689;SDS011;44470;53.206;-6.106;2023-04-06T10:14:38;1.35;;;1.00;;
58689;SDS011;44470;53.206;-6.106;2023-04-06T10:17:04;1.05;;;0.90;;
58689;SDS011;44470;53.206;-6.106;2023-04-06T10:19:35;2.05;;;0.90;;
58689;SDS011;44470;53.206;-6.106;2023-04-06T10:22:03;0.85;;;0.80;;
58689;SDS011;44470;53.206;-6.106;2023-04-06T10:24:30;1.10;;;0.77;;
58689;SDS011;44470;53.206;-6.106;2023-04-06T10:27:05;1.00;;;0.75;;
58689;SDS011;44470;53.206;-6.106;2023-04-06T10:29:42;0.70;;;0.70;;
58689;SDS011;44470;53.206;-6.106;2023-04-06T10:34:37;0.82;;;0.80;;
58689;SDS011;44470;53.206;-6.106;2023-04-06T10:37:13;0.57;;;0.57;;
58689;SDS011;44470;53.206;-6.106;2023-04-06T10:39:52;1.25;;;0.80;;
58689;SDS011;44470;53.206;-6.106;2023-04-06T10:42:36;1.63;;;0.88;;
58689;SDS011;44470;53.206;-6.106;2023-04-06T10:45:05;2.03;;;0.93;;
58689;SDS011;44470;53.206;-6.106;2023-04-06T10:47:39;2.30;;;0.75;;
58689;SDS011;44470;53.206;-6.106;2023-04-06T10:50:05;1.33;;;0.70;;
58689;SDS011;44470;53.206;-6.106;2023-04-06T10:52:31;0.70;;;0.63;;
58689;SDS011;44470;53.206;-6.106;2023-04-06T10:54:56;2.17;;;0.90;;
58689;SDS011;44470;53.206;-6.106;2023-04-06T10:57:29;1.30;;;1.00;;
58689;SDS011;44470;53.206;-6.106;2023-04-06T10:59:55;0.77;;;0.75;;
58689;SDS011;44470;53.206;-6.106;2023-04-06T11:02:21;1.60;;;0.70;;
58689;SDS011;44470;53.206;-6.106;2023-04-06T11:04:56;1.27;;;0.70;;
58689;SDS011;44470;53.206;-6.106;2023-04-06T11:07:26;1.33;;;0.80;;
58689;SDS011;44470;53.206;-6.106;2023-04-06T11:09:52;0.85;;;0.80;;
58689;SDS011;44470;53.206;-6.106;2023-04-06T11:12:25;1.02;;;0.90;;
58689;SDS011;44470;53.206;-6.106;2023-04-06T11:14:55;1.25;;;0.65;;
58689;SDS011;44470;53.206;-6.106;2023-04-06T11:17:34;1.02;;;0.68;;
58689;SDS011;44470;53.206;-6.106;2023-04-06T11:20:02;1.38;;;0.60;;
58689;SDS011;44470;53.206;-6.106;2023-04-06T11:22:29;0.60;;;0.60;;
58689;SDS011;44470;53.206;-6.106;2023-04-06T11:25:05;1.48;;;0.70;;
58689;SDS011;44470;53.206;-6.106;2023-04-06T11:27:32;1.42;;;0.77;;
58689;SDS011;44470;53.206;-6.106;2023-04-06T11:29:59;1.55;;;0.70;;
58689;SDS011;44470;53.206;-6.106;2023-04-06T11:32:25;0.80;;;0.80;;
58689;SDS011;44470;53.206;-6.106;2023-04-06T11:34:51;0.80;;;0.70;;
58689;SDS011;44470;53.206;-6.106;2023-04-06T11:37:17;1.38;;;0.68;;
58689;SDS011;44470;53.206;-6.106;2023-04-06T11:39:49;1.30;;;1.13;;
58689;SDS011;44470;53.206;-6.106;2023-04-06T11:42:26;0.90;;;0.82;;
58689;SDS011;44470;53.206;-6.106;2023-04-06T11:44:57;1.20;;;0.70;;
58689;SDS011;44470;53.206;-6.106;2023-04-06T11:47:30;0.67;;;0.63;;
58689;SDS011;44470;53.206;-6.106;2023-04-06T11:50:08;1.17;;;0.68;;
58689;SDS011;44470;53.206;-6.106;2023-04-06T11:52:38;1.23;;;0.63;;
58689;SDS011;44470;53.206;-6.106;2023-04-06T11:55:12;0.55;;;0.50;;
58689;SDS011;44470;53.206;-6.106;2023-04-06T11:57:39;0.40;;;0.40;;
58689;SDS011;44470;53.206;-6.106;2023-04-06T12:00:06;1.38;;;0.75;;
58689;SDS011;44470;53.206;-6.106;2023-04-06T12:02:34;1.25;;;0.73;;
58689;SDS011;44470;53.206;-6.106;2023-04-06T12:05:01;1.02;;;0.68;;
58689;SDS011;44470;53.206;-6.106;2023-04-06T12:07:27;0.90;;;0.75;;
58689;SDS011;44470;53.206;-6.106;2023-04-06T12:09:54;1.05;;;0.70;;
58689;SDS011;44470;53.206;-6.106;2023-04-06T12:12:19;0.65;;;0.40;;
58689;SDS011;44470;53.206;-6.106;2023-04-06T12:14:45;0.60;;;0.60;;
58689;SDS011;44470;53.206;-6.106;2023-04-06T12:17:10;1.27;;;0.70;;
58689;SDS011;44470;53.206;-6.106;2023-04-06T12:19:36;1.00;;;0.60;;
58689;SDS011;44470;53.206;-6.106;2023-04-06T12:22:01;0.73;;;0.60;;
58689;SDS011;44470;53.206;-6.106;2023-04-06T12:24:27;0.90;;;0.50;;
58689;SDS011;44470;53.206;-6.106;2023-04-06T12:26:54;0.70;;;0.40;;
58689;SDS011;44470;53.206;-6.106;2023-04-06T12:29:19;0.93;;;0.60;;
58689;SDS011;44470;53.206;-6.106;2023-04-06T12:31:45;0.77;;;0.40;;
58689;SDS011;44470;53.206;-6.106;2023-04-06T12:34:11;1.42;;;0.52;;
58689;SDS011;44470;53.206;-6.106;2023-04-06T12:36:37;1.10;;;0.50;;
58689;SDS011;44470;53.206;-6.106;2023-04-06T12:39:04;0.75;;;0.52;;
58689;SDS011;44470;53.206;-6.106;2023-04-06T12:41:48;1.58;;;0.65;;
58689;SDS011;44470;53.206;-6.106;2023-04-06T12:44:14;1.08;;;0.45;;
58689;SDS011;44470;53.206;-6.106;2023-04-06T12:46:39;0.90;;;0.80;;
58689;SDS011;44470;53.206;-6.106;2023-04-06T12:49:05;0.60;;;0.60;;
58689;SDS011;44470;53.206;-6.106;2023-04-06T12:51:31;1.05;;;0.57;;
58689;SDS011;44470;53.206;-6.106;2023-04-06T12:53:56;0.65;;;0.65;;
58689;SDS011;44470;53.206;-6.106;2023-04-06T12:56:22;0.77;;;0.50;;
58689;SDS011;44470;53.206;-6.106;2023-04-06T12:58:47;0.82;;;0.55;;
58689;SDS011;44470;53.206;-6.106;2023-04-06T13:01:15;0.52;;;0.40;;
58689;SDS011;44470;53.206;-6.106;2023-04-06T13:03:41;1.27;;;0.52;;
58689;SDS011;44470;53.206;-6.106;2023-04-06T13:06:06;1.88;;;0.43;;
58689;SDS011;44470;53.206;-6.106;2023-04-06T13:08:35;0.85;;;0.50;;
58689;SDS011;44470;53.206;-6.106;2023-04-06T13:11:03;0.55;;;0.35;;
58689;SDS011;44470;53.206;-6.106;2023-04-06T13:13:30;0.65;;;0.40;;
58689;SDS011;44470;53.206;-6.106;2023-04-06T13:16:00;0.95;;;0.70;;
58689;SDS011;44470;53.206;-6.106;2023-04-06T13:18:28;0.52;;;0.52;;
58689;SDS011;44470;53.206;-6.106;2023-04-06T13:20:55;0.82;;;0.50;;
58689;SDS011;44470;53.206;-6.106;2023-04-06T13:23:21;1.52;;;0.88;;
58689;SDS011;44470;53.206;-6.106;2023-04-06T13:26:06;0.68;;;0.43;;
58689;SDS011;44470;53.206;-6.106;2023-04-06T13:28:33;0.65;;;0.63;;
58689;SDS011;44470;53.206;-6.106;2023-04-06T13:31:00;0.70;;;0.70;;
58689;SDS011;44470;53.206;-6.106;2023-04-06T13:33:27;1.10;;;0.50;;
58689;SDS011;44470;53.206;-6.106;2023-04-06T13:35:53;1.38;;;0.50;;
58689;SDS011;44470;53.206;-6.106;2023-04-06T13:38:18;0.52;;;0.50;;
58689;SDS011;44470;53.206;-6.106;2023-04-06T13:40:44;1.48;;;0.57;;
58689;SDS011;44470;53.206;-6.106;2023-04-06T13:43:10;1.30;;;0.55;;
58689;SDS011;44470;53.206;-6.106;2023-04-06T13:45:36;0.52;;;0.45;;
58689;SDS011;44470;53.206;-6.106;2023-04-06T13:48:02;1.77;;;0.73;;
58689;SDS011;44470;53.206;-6.106;2023-04-06T13:50:27;0.65;;;0.52;;
58689;SDS011;44470;53.206;-6.106;2023-04-06T13:52:53;0.82;;;0.70;;
58689;SDS011;44470;53.206;-6.106;2023-04-06T13:55:19;0.77;;;0.45;;
58689;SDS011;44470;53.206;-6.106;2023-04-06T13:57:45;0.68;;;0.50;;
58689;SDS011;44470;53.206;-6.106;2023-04-06T14:00:10;0.50;;;0.50;;
58689;SDS011;44470;53.206;-6.106;2023-04-06T14:02:38;0.57;;;0.50;;
58689;SDS011;44470;53.206;-6.106;2023-04-06T14:05:07;0.73;;;0.60;;
58689;SDS011;44470;53.206;-6.106;2023-04-06T14:07:33;0.40;;;0.40;;
58689;SDS011;44470;53.206;-6.106;2023-04-06T14:09:58;0.40;;;0.40;;
58689;SDS011;44470;53.206;-6.106;2023-04-06T14:12:24;0.75;;;0.50;;
58689;SDS011;44470;53.206;-6.106;2023-04-06T14:14:49;0.60;;;0.60;;
58689;SDS011;44470;53.206;-6.106;2023-04-06T14:17:15;1.05;;;0.55;;
58689;SDS011;44470;53.206;-6.106;2023-04-06T14:19:40;0.65;;;0.60;;
58689;SDS011;44470;53.206;-6.106;2023-04-06T14:22:06;1.67;;;0.57;;
58689;SDS011;44470;53.206;-6.106;2023-04-06T14:24:32;0.30;;;0.30;;
58689;SDS011;44470;53.206;-6.106;2023-04-06T14:26:57;1.90;;;0.30;;
58689;SDS011;44470;53.206;-6.106;2023-04-06T14:29:24;0.40;;;0.40;;
58689;SDS011;44470;53.206;-6.106;2023-04-06T14:31:49;1.25;;;0.63;;
58689;SDS011;44470;53.206;-6.106;2023-04-06T14:34:15;0.52;;;0.50;;
58689;SDS011;44470;53.206;-6.106;2023-04-06T14:36:42;0.45;;;0.35;;
58689;SDS011;44470;53.206;-6.106;2023-04-06T14:39:07;0.55;;;0.30;;
58689;SDS011;44470;53.206;-6.106;2023-04-06T14:41:33;1.65;;;0.50;;
58689;SDS011;44470;53.206;-6.106;2023-04-06T14:43:59;0.80;;;0.40;;
58689;SDS011;44470;53.206;-6.106;2023-04-06T14:46:28;0.80;;;0.45;;
58689;SDS011;44470;53.206;-6.106;2023-04-06T14:48:54;0.47;;;0.35;;
58689;SDS011;44470;53.206;-6.106;2023-04-06T14:51:21;0.28;;;0.28;;